createdAt,value
2023-03-21T00:01:34.796Z,45.77
2023-03-21T00:04:01.419Z,45.79
2023-03-21T00:06:29.543Z,45.79
2023-03-21T00:08:56.106Z,45.69
2023-03-21T00:11:22.697Z,45.67
2023-03-21T00:13:49.311Z,45.68
2023-03-21T00:16:25.014Z,45.84
2023-03-21T00:18:59.284Z,45.88
2023-03-21T00:24:14.922Z,45.67
2023-03-21T00:26:44.247Z,45.75
2023-03-21T00:29:10.882Z,45.80
2023-03-21T00:31:37.499Z,45.86
2023-03-21T00:34:04.055Z,45.72
2023-03-21T00:36:30.900Z,45.86
2023-03-21T00:38:57.534Z,45.91
2023-03-21T00:41:40.951Z,45.88
2023-03-21T00:44:08.620Z,45.83
2023-03-21T00:46:44.066Z,45.90
2023-03-21T00:49:13.725Z,45.85
2023-03-21T00:51:40.744Z,45.94
2023-03-21T00:54:07.846Z,45.91
2023-03-21T00:56:34.434Z,45.68
2023-03-21T00:59:01.022Z,45.85
2023-03-21T01:01:32.199Z,46.02
2023-03-21T01:04:05.391Z,45.82
2023-03-21T01:06:33.297Z,45.92
2023-03-21T01:08:59.993Z,45.87
2023-03-21T01:11:29.027Z,45.88
2023-03-21T01:14:14.649Z,45.95
2023-03-21T01:16:44.300Z,45.79
2023-03-21T01:19:23.885Z,46.05
2023-03-21T01:21:51.875Z,45.93
2023-03-21T01:24:19.956Z,45.92
2023-03-21T01:26:46.587Z,45.76
2023-03-21T01:29:13.156Z,45.86
2023-03-21T01:31:39.925Z,45.81
2023-03-21T01:34:06.528Z,45.84
2023-03-21T01:36:34.794Z,45.94
2023-03-21T01:39:01.372Z,45.93
2023-03-21T01:41:42.007Z,45.91
2023-03-21T01:44:17.468Z,45.87
2023-03-21T01:47:07.324Z,45.88
2023-03-21T01:49:38.817Z,45.87
2023-03-21T01:52:13.145Z,45.78
2023-03-21T01:54:43.501Z,46.03
2023-03-21T01:57:17.047Z,45.83
2023-03-21T01:59:50.101Z,45.93
2023-03-21T02:02:26.832Z,45.86
2023-03-21T02:04:56.210Z,45.99
2023-03-21T02:07:32.415Z,46.07
2023-03-21T02:09:59.430Z,45.90
2023-03-21T02:12:26.903Z,45.96
2023-03-21T02:14:57.012Z,45.84
2023-03-21T02:17:43.805Z,46.04
2023-03-21T02:20:37.152Z,45.73
2023-03-21T02:23:14.712Z,45.78
2023-03-21T02:25:49.874Z,46.09
2023-03-21T02:28:19.687Z,45.77
2023-03-21T02:31:20.810Z,45.98
2023-03-21T02:34:16.562Z,46.06
2023-03-21T02:37:11.316Z,45.88
2023-03-21T02:40:00.735Z,46.10
2023-03-21T02:42:59.431Z,46.02
2023-03-21T02:45:32.802Z,45.89
2023-03-21T02:48:07.000Z,46.02
2023-03-21T02:50:46.789Z,46.02
2023-03-21T02:53:16.216Z,46.09
2023-03-21T02:55:43.566Z,45.98
2023-03-21T02:58:14.123Z,46.23
2023-03-21T03:00:43.439Z,45.90
2023-03-21T03:03:18.006Z,46.08
2023-03-21T03:05:54.332Z,45.92
2023-03-21T03:08:43.241Z,46.01
2023-03-21T03:11:25.835Z,45.78
2023-03-21T03:14:36.744Z,45.89
2023-03-21T03:17:19.267Z,45.96
2023-03-21T03:20:17.257Z,46.10
2023-03-21T03:23:13.805Z,46.17
2023-03-21T03:25:53.499Z,45.82
2023-03-21T03:28:25.721Z,46.11
2023-03-21T03:31:07.544Z,45.86
2023-03-21T03:33:38.050Z,46.13
2023-03-21T03:36:07.037Z,46.05
2023-03-21T03:38:35.588Z,46.17
2023-03-21T03:41:08.412Z,46.14
2023-03-21T03:43:40.908Z,46.28
2023-03-21T03:46:27.803Z,46.13
2023-03-21T03:49:18.376Z,45.99
2023-03-21T03:51:58.620Z,46.07
2023-03-21T03:54:40.793Z,45.91
2023-03-21T03:57:08.160Z,46.00
2023-03-21T03:59:38.617Z,46.09
2023-03-21T04:02:05.853Z,46.15
2023-03-21T04:04:32.643Z,45.93
2023-03-21T04:06:59.511Z,46.08
2023-03-21T04:09:43.063Z,46.18
2023-03-21T04:12:10.598Z,45.88
2023-03-21T04:14:44.564Z,46.02
2023-03-21T04:17:12.603Z,45.80
2023-03-21T04:19:39.264Z,46.04
2023-03-21T04:22:05.981Z,46.06
2023-03-21T04:24:33.867Z,46.15
2023-03-21T04:27:01.076Z,46.06
2023-03-21T04:29:29.707Z,46.21
2023-03-21T04:31:56.758Z,46.16
2023-03-21T04:34:28.132Z,46.12
2023-03-21T04:36:55.681Z,46.37
2023-03-21T04:39:22.543Z,46.25
2023-03-21T04:41:49.942Z,46.10
2023-03-21T04:44:19.010Z,46.16
2023-03-21T04:46:45.707Z,46.19
2023-03-21T04:49:12.273Z,46.06
2023-03-21T04:51:39.209Z,46.14
2023-03-21T04:54:05.921Z,46.19
2023-03-21T04:56:33.940Z,46.28
2023-03-21T04:59:02.316Z,46.06
2023-03-21T05:01:31.947Z,46.19
2023-03-21T05:04:03.035Z,46.33
2023-03-21T05:06:30.539Z,46.06
2023-03-21T05:09:01.599Z,46.31
2023-03-21T05:11:30.772Z,46.02
2023-03-21T05:13:58.063Z,46.35
2023-03-21T05:16:30.541Z,46.47
2023-03-21T05:18:59.093Z,46.17
2023-03-21T05:21:29.511Z,46.20
2023-03-21T05:23:58.358Z,46.14
2023-03-21T05:26:25.393Z,46.14
2023-03-21T05:28:51.946Z,46.32
2023-03-21T05:31:19.394Z,46.37
2023-03-21T05:33:46.515Z,46.31
2023-03-21T05:36:13.545Z,46.28
2023-03-21T05:38:45.722Z,46.46
2023-03-21T05:41:18.150Z,46.30
2023-03-21T05:43:45.844Z,46.38
2023-03-21T05:46:12.528Z,46.30
2023-03-21T05:48:40.097Z,46.34
2023-03-21T05:51:06.830Z,46.31
2023-03-21T05:53:33.382Z,46.31
2023-03-21T05:56:00.423Z,46.44
2023-03-21T05:58:26.983Z,46.43
2023-03-21T06:00:53.561Z,46.63
2023-03-21T06:03:20.508Z,46.49
2023-03-21T06:05:47.051Z,46.39
2023-03-21T06:08:13.628Z,46.52
2023-03-21T06:10:40.188Z,46.58
2023-03-21T06:13:06.782Z,46.49
2023-03-21T06:15:36.248Z,46.75
2023-03-21T06:18:03.011Z,46.52
2023-03-21T06:20:29.561Z,46.53
2023-03-21T06:22:56.148Z,46.55
2023-03-21T06:25:23.033Z,46.57
2023-03-21T06:27:49.670Z,46.54
2023-03-21T06:30:17.513Z,46.31
2023-03-21T06:32:44.104Z,46.48
2023-03-21T06:35:10.675Z,46.40
2023-03-21T06:37:38.176Z,46.57
2023-03-21T06:40:06.745Z,46.58
2023-03-21T06:42:33.299Z,46.58
2023-03-21T06:44:59.892Z,46.76
2023-03-21T06:47:26.446Z,46.79
2023-03-21T06:49:53.021Z,46.48
2023-03-21T06:52:19.575Z,46.63
2023-03-21T06:54:46.149Z,46.47
2023-03-21T06:57:13.553Z,46.68
2023-03-21T06:59:41.681Z,46.44
2023-03-21T07:02:10.842Z,46.77
2023-03-21T07:04:37.424Z,46.81
2023-03-21T07:07:03.982Z,46.41
2023-03-21T07:09:30.543Z,46.30
2023-03-21T07:11:57.932Z,46.26
2023-03-21T07:14:24.522Z,46.12
2023-03-21T07:16:51.946Z,45.73
2023-03-21T07:19:18.698Z,45.41
2023-03-21T07:21:45.329Z,45.23
2023-03-21T07:24:11.893Z,45.45
2023-03-21T07:26:40.061Z,45.03
2023-03-21T07:29:06.652Z,44.84
2023-03-21T07:31:33.284Z,44.41
2023-03-21T07:33:59.887Z,44.79
2023-03-21T07:36:26.522Z,44.77
2023-03-21T07:38:53.099Z,44.64
2023-03-21T07:41:19.682Z,44.69
2023-03-21T07:43:46.275Z,44.53
2023-03-21T07:46:12.938Z,44.54
2023-03-21T07:48:40.336Z,44.92
2023-03-21T07:51:07.174Z,45.00
2023-03-21T07:53:33.756Z,44.67
2023-03-21T07:56:00.396Z,44.80
2023-03-21T07:58:28.471Z,44.98
2023-03-21T08:00:58.771Z,45.22
2023-03-21T08:03:29.189Z,45.30
2023-03-21T08:05:55.915Z,45.23
2023-03-21T08:08:22.471Z,44.79
2023-03-21T08:10:49.048Z,44.81
2023-03-21T08:13:16.450Z,45.11
2023-03-21T08:15:43.923Z,45.16
2023-03-21T08:18:14.793Z,45.06
2023-03-21T08:20:41.552Z,45.29
2023-03-21T08:23:08.101Z,45.56
2023-03-21T08:25:34.793Z,45.56
2023-03-21T08:28:01.415Z,45.87
2023-03-21T08:30:28.810Z,45.71
2023-03-21T08:33:01.391Z,46.03
2023-03-21T08:35:29.328Z,46.10
2023-03-21T08:37:55.932Z,45.83
2023-03-21T08:40:22.476Z,45.95
2023-03-21T08:42:49.137Z,46.64
2023-03-21T08:45:17.467Z,46.79
2023-03-21T08:47:44.483Z,46.36
2023-03-21T08:50:13.557Z,46.64
2023-03-21T08:52:40.176Z,46.35
2023-03-21T08:55:07.549Z,46.30
2023-03-21T08:57:34.159Z,46.10
2023-03-21T09:00:00.955Z,46.06
2023-03-21T09:02:27.838Z,46.04
2023-03-21T09:04:55.007Z,45.99
2023-03-21T09:07:22.289Z,46.21
2023-03-21T09:10:08.307Z,46.17
2023-03-21T09:12:38.881Z,46.07
2023-03-21T09:15:07.705Z,45.70
2023-03-21T09:17:34.717Z,45.79
2023-03-21T09:20:08.447Z,46.00
2023-03-21T09:22:35.056Z,46.00
2023-03-21T09:25:04.271Z,45.73
2023-03-21T09:27:30.926Z,46.14
2023-03-21T09:29:57.573Z,46.13
2023-03-21T09:32:24.171Z,46.30
2023-03-21T09:34:51.024Z,46.22
2023-03-21T09:37:17.687Z,46.34
2023-03-21T09:39:45.452Z,45.79
2023-03-21T09:42:47.469Z,46.31
2023-03-21T09:45:26.326Z,46.42
2023-03-21T09:47:53.864Z,46.22
2023-03-21T09:50:32.400Z,46.48
2023-03-21T09:53:08.975Z,46.06
2023-03-21T09:55:38.607Z,46.15
2023-03-21T09:58:36.668Z,46.64
2023-03-21T10:01:05.421Z,46.94
2023-03-21T10:03:35.196Z,46.46
2023-03-21T10:06:08.357Z,46.67
2023-03-21T10:08:37.467Z,46.54
2023-03-21T10:11:14.678Z,46.47
2023-03-21T10:13:46.926Z,46.39
2023-03-21T10:16:20.160Z,46.07
2023-03-21T10:18:47.020Z,45.95
2023-03-21T10:21:47.467Z,45.82
2023-03-21T10:24:11.577Z,45.87
2023-03-21T10:26:38.236Z,45.81
2023-03-21T10:29:04.849Z,45.84
2023-03-21T10:31:31.811Z,46.03
2023-03-21T10:34:03.881Z,45.63
2023-03-21T10:36:32.849Z,45.67
2023-03-21T10:39:04.328Z,45.73
2023-03-21T10:41:31.869Z,45.80
2023-03-21T10:44:08.217Z,45.72
2023-03-21T10:46:36.347Z,45.66
2023-03-21T10:49:03.902Z,45.69
2023-03-21T10:51:36.446Z,45.88
2023-03-21T10:54:08.718Z,46.25
2023-03-21T10:56:37.796Z,46.17
2023-03-21T10:59:05.471Z,46.66
2023-03-21T11:01:41.268Z,46.61
2023-03-21T11:04:18.329Z,46.78
2023-03-21T11:06:47.221Z,46.74
2023-03-21T11:09:23.202Z,46.87
2023-03-21T11:11:54.263Z,47.00
2023-03-21T11:14:33.225Z,47.00
2023-03-21T11:17:00.289Z,46.94
2023-03-21T11:19:32.683Z,46.61
2023-03-21T11:22:08.837Z,46.91
2023-03-21T11:24:36.111Z,46.99
2023-03-21T11:27:06.897Z,46.83
2023-03-21T11:29:34.776Z,46.84
2023-03-21T11:32:35.149Z,47.81
2023-03-21T11:35:05.035Z,47.39
2023-03-21T11:37:32.616Z,47.29
2023-03-21T11:40:17.775Z,47.26
2023-03-21T11:42:48.126Z,47.50
2023-03-21T11:45:18.341Z,47.24
2023-03-21T11:47:46.325Z,47.21
2023-03-21T11:50:16.612Z,47.04
2023-03-21T11:53:20.343Z,46.93
2023-03-21T11:56:07.070Z,47.29
2023-03-21T11:58:45.639Z,47.59
2023-03-21T12:01:35.039Z,47.24
2023-03-21T12:04:21.654Z,47.15
2023-03-21T12:07:10.985Z,47.19
2023-03-21T12:09:42.216Z,47.24
2023-03-21T12:12:39.233Z,47.35
2023-03-21T12:15:16.184Z,47.20
2023-03-21T12:18:21.156Z,47.42
2023-03-21T12:21:01.059Z,47.18
2023-03-21T12:23:39.231Z,47.14
2023-03-21T12:26:23.367Z,47.08
2023-03-21T12:29:08.852Z,47.03
2023-03-21T12:31:59.578Z,47.22
2023-03-21T12:34:32.487Z,47.16
2023-03-21T12:36:59.031Z,47.13
2023-03-21T12:39:30.828Z,47.05
2023-03-21T12:42:05.558Z,47.27
2023-03-21T12:44:36.032Z,47.31
2023-03-21T12:47:20.205Z,47.00
2023-03-21T12:50:04.258Z,47.17
2023-03-21T12:52:34.165Z,47.32
2023-03-21T12:55:16.934Z,46.92
2023-03-21T12:57:57.489Z,46.99
2023-03-21T13:00:51.663Z,47.09
2023-03-21T13:03:27.642Z,47.12
2023-03-21T13:06:05.714Z,47.06
2023-03-21T13:08:37.300Z,47.21
2023-03-21T13:11:05.967Z,46.95
2023-03-21T13:13:51.847Z,47.03
2023-03-21T13:16:33.744Z,46.98
2023-03-21T13:19:27.023Z,47.15
2023-03-21T13:22:07.388Z,47.27
2023-03-21T13:24:48.112Z,47.08
2023-03-21T13:27:34.639Z,47.06
2023-03-21T13:30:07.652Z,47.02
2023-03-21T13:32:39.841Z,47.11
2023-03-21T13:35:12.623Z,47.16
2023-03-21T13:37:42.660Z,46.89
2023-03-21T13:40:39.461Z,47.09
2023-03-21T13:43:31.926Z,47.05
2023-03-21T13:46:06.702Z,46.80
2023-03-21T13:49:00.413Z,46.85
2023-03-21T13:51:45.234Z,46.87
2023-03-21T13:54:17.668Z,46.87
2023-03-21T13:56:47.078Z,46.89
2023-03-21T13:59:17.845Z,47.06
2023-03-21T14:02:01.902Z,47.04
2023-03-21T14:04:41.849Z,46.75
2023-03-21T14:07:25.048Z,46.77
2023-03-21T14:09:58.878Z,46.62
2023-03-21T14:12:29.518Z,46.45
2023-03-21T14:15:06.811Z,46.73
2023-03-21T14:17:55.858Z,46.54
2023-03-21T14:20:28.834Z,46.64
2023-03-21T14:22:55.521Z,46.61
2023-03-21T14:25:27.230Z,46.70
2023-03-21T14:27:57.544Z,46.51
2023-03-21T14:30:37.464Z,46.56
2023-03-21T14:33:12.540Z,46.61
2023-03-21T14:35:41.452Z,46.75
2023-03-21T14:38:09.380Z,46.69
2023-03-21T14:40:36.092Z,46.55
2023-03-21T14:43:06.651Z,46.24
2023-03-21T14:45:35.846Z,46.49
2023-03-21T14:48:06.738Z,46.28
2023-03-21T14:50:53.977Z,46.58
2023-03-21T14:53:29.026Z,46.57
2023-03-21T14:56:02.818Z,46.95
2023-03-21T14:58:31.412Z,46.92
2023-03-21T15:01:09.476Z,46.84
2023-03-21T15:03:37.558Z,46.97
2023-03-21T15:06:04.650Z,47.03
2023-03-21T15:08:31.492Z,47.02
2023-03-21T15:11:06.840Z,47.04
2023-03-21T15:13:49.384Z,47.07
2023-03-21T15:16:16.596Z,47.16
2023-03-21T15:18:44.585Z,47.06
2023-03-21T15:21:19.318Z,47.01
2023-03-21T15:23:47.239Z,46.83
2023-03-21T15:26:16.771Z,47.06
2023-03-21T15:28:46.703Z,47.02
2023-03-21T15:31:22.651Z,46.97
2023-03-21T15:33:51.177Z,47.04
2023-03-21T15:36:37.631Z,47.13
2023-03-21T15:39:06.968Z,46.94
2023-03-21T15:41:35.130Z,46.99
2023-03-21T15:44:03.188Z,47.02
2023-03-21T15:46:43.144Z,46.81
2023-03-21T15:49:13.365Z,46.99
2023-03-21T15:51:42.148Z,47.08
2023-03-21T15:54:15.894Z,46.75
2023-03-21T15:56:45.960Z,47.10
2023-03-21T15:59:15.258Z,46.85
2023-03-21T16:01:41.842Z,46.66
2023-03-21T16:04:10.293Z,47.09
2023-03-21T16:06:38.466Z,46.88
2023-03-21T16:09:22.078Z,46.93
2023-03-21T16:11:49.983Z,47.17
2023-03-21T16:14:18.713Z,46.91
2023-03-21T16:16:48.390Z,47.07
2023-03-21T16:19:16.764Z,46.79
2023-03-21T16:21:43.488Z,46.92
2023-03-21T16:24:11.720Z,46.70
2023-03-21T16:26:50.749Z,46.59
2023-03-21T16:29:18.645Z,46.50
2023-03-21T16:31:48.148Z,47.13
2023-03-21T16:34:14.845Z,47.96
2023-03-21T16:36:43.430Z,47.52
2023-03-21T16:39:17.870Z,47.25
2023-03-21T16:41:44.912Z,47.30
2023-03-21T16:44:12.092Z,47.33
2023-03-21T16:46:38.840Z,47.63
2023-03-21T16:49:05.643Z,47.06
2023-03-21T16:51:34.724Z,47.19
2023-03-21T16:54:02.269Z,47.11
2023-03-21T16:57:01.312Z,47.00
2023-03-21T16:59:27.878Z,47.11
2023-03-21T17:01:55.507Z,47.02
2023-03-21T17:04:22.588Z,46.92
2023-03-21T17:06:51.357Z,47.24
2023-03-21T17:09:24.018Z,46.85
2023-03-21T17:11:50.925Z,47.19
2023-03-21T17:14:21.593Z,46.83
2023-03-21T17:16:50.513Z,46.88
2023-03-21T17:19:20.036Z,46.67
2023-03-21T17:21:47.081Z,46.89
2023-03-21T17:24:13.922Z,47.03
2023-03-21T17:26:40.559Z,46.74
2023-03-21T17:29:07.346Z,46.56
2023-03-21T17:31:36.258Z,46.55
2023-03-21T17:34:03.631Z,46.98
2023-03-21T17:36:36.446Z,47.07
2023-03-21T17:39:06.437Z,47.07
2023-03-21T17:41:33.156Z,46.95
2023-03-21T17:43:59.717Z,46.92
2023-03-21T17:46:27.353Z,46.83
2023-03-21T17:48:54.147Z,46.95
2023-03-21T17:51:23.041Z,46.92
2023-03-21T17:53:53.642Z,46.82
2023-03-21T17:56:26.276Z,46.78
2023-03-21T17:58:56.712Z,45.89
2023-03-21T18:01:23.393Z,46.04
2023-03-21T18:03:52.580Z,45.86
2023-03-21T18:06:21.775Z,45.95
2023-03-21T18:08:49.886Z,45.83
2023-03-21T18:11:17.470Z,45.97
2023-03-21T18:13:44.872Z,46.22
2023-03-21T18:16:17.512Z,45.95
2023-03-21T18:18:46.535Z,45.98
2023-03-21T18:21:14.465Z,45.94
2023-03-21T18:23:41.270Z,45.87
2023-03-21T18:26:09.781Z,45.88
2023-03-21T18:28:41.344Z,45.90
2023-03-21T18:31:15.596Z,45.83
2023-03-21T18:33:45.283Z,46.04
2023-03-21T18:36:14.931Z,46.11
2023-03-21T18:38:44.494Z,45.74
2023-03-21T18:41:11.493Z,45.85
2023-03-21T18:44:02.625Z,45.88
2023-03-21T18:46:25.379Z,45.75
2023-03-21T18:48:52.843Z,45.90
2023-03-21T18:51:19.606Z,45.73
2023-03-21T18:53:46.414Z,46.27
2023-03-21T18:56:46.879Z,46.31
2023-03-21T18:59:05.309Z,46.08
2023-03-21T19:01:32.787Z,46.09
2023-03-21T19:04:30.033Z,46.08
2023-03-21T19:06:47.519Z,46.16
2023-03-21T19:09:14.738Z,46.11
2023-03-21T19:11:44.516Z,46.21
2023-03-21T19:14:16.301Z,46.15
2023-03-21T19:19:31.877Z,46.01
2023-03-21T19:21:58.520Z,46.03
2023-03-21T19:24:28.547Z,46.04
2023-03-21T19:26:55.676Z,46.21
2023-03-21T19:29:22.280Z,46.19
2023-03-21T19:31:51.117Z,46.13
2023-03-21T19:34:18.689Z,46.19
2023-03-21T19:36:50.746Z,46.08
2023-03-21T19:39:21.937Z,45.99
2023-03-21T19:41:48.945Z,46.14
2023-03-21T19:44:15.576Z,46.21
2023-03-21T19:46:42.173Z,45.84
2023-03-21T19:49:08.819Z,46.04
2023-03-21T19:51:35.765Z,46.00
2023-03-21T19:54:05.077Z,46.32
2023-03-21T19:56:31.965Z,45.88
2023-03-21T19:58:59.017Z,46.12
2023-03-21T20:01:26.247Z,46.10
2023-03-21T20:03:53.078Z,45.76
2023-03-21T20:06:19.908Z,45.94
2023-03-21T20:11:33.876Z,46.12
2023-03-21T20:14:03.116Z,45.88
2023-03-21T20:16:35.292Z,46.01
2023-03-21T20:19:04.512Z,46.04
2023-03-21T20:21:36.658Z,46.01
2023-03-21T20:24:12.214Z,46.19
2023-03-21T20:26:39.430Z,46.05
2023-03-21T20:29:46.962Z,46.34
2023-03-21T20:31:53.241Z,46.05
2023-03-21T20:34:21.252Z,46.31
2023-03-21T20:36:48.241Z,46.30
2023-03-21T20:39:15.363Z,46.13
2023-03-21T20:41:41.974Z,46.35
2023-03-21T20:46:55.064Z,46.61
2023-03-21T20:49:23.032Z,46.32
2023-03-21T20:52:49.373Z,46.61
2023-03-21T20:54:37.115Z,46.34
2023-03-21T20:57:04.985Z,46.37
2023-03-21T20:59:31.775Z,46.32
2023-03-21T21:01:58.787Z,46.35
2023-03-21T21:04:46.925Z,46.13
2023-03-21T21:07:17.227Z,46.37
2023-03-21T21:09:44.832Z,46.57
2023-03-21T21:12:12.729Z,46.42
2023-03-21T21:14:39.767Z,46.68
2023-03-21T21:17:24.597Z,46.35
2023-03-21T21:19:54.513Z,46.34
2023-03-21T21:22:21.105Z,46.52
2023-03-21T21:24:48.021Z,46.46
2023-03-21T21:27:14.597Z,46.61
2023-03-21T21:29:43.348Z,46.33
2023-03-21T21:32:11.182Z,46.42
2023-03-21T21:34:37.905Z,46.25
2023-03-21T21:37:05.108Z,46.29
2023-03-21T21:39:37.834Z,46.65
2023-03-21T21:42:05.182Z,46.54
2023-03-21T21:44:31.789Z,46.33
2023-03-21T21:46:58.406Z,46.29
2023-03-21T21:49:25.091Z,46.41
2023-03-21T21:51:51.673Z,46.31
2023-03-21T21:54:18.648Z,46.14
2023-03-21T21:56:48.413Z,46.41
2023-03-21T21:59:18.646Z,46.42
2023-03-21T22:01:46.668Z,46.23
2023-03-21T22:04:14.492Z,46.37
2023-03-21T22:06:42.267Z,46.20
2023-03-21T22:09:09.247Z,46.35
2023-03-21T22:11:37.010Z,46.45
2023-03-21T22:14:03.864Z,46.30
2023-03-21T22:16:31.253Z,46.29
2023-03-21T22:18:57.835Z,46.26
2023-03-21T22:21:24.419Z,46.57
2023-03-21T22:23:50.981Z,46.43
2023-03-21T22:26:17.662Z,46.18
2023-03-21T22:28:44.246Z,45.96
2023-03-21T22:31:13.509Z,46.14
2023-03-21T22:33:40.098Z,46.01
2023-03-21T22:36:07.027Z,46.09
2023-03-21T22:38:34.585Z,46.21
2023-03-21T22:41:02.350Z,45.94
2023-03-21T22:43:33.589Z,46.20
2023-03-21T22:46:02.173Z,46.26
2023-03-21T22:48:31.647Z,46.55
2023-03-21T22:50:58.903Z,46.24
2023-03-21T22:53:25.735Z,46.39
2023-03-21T22:55:52.348Z,46.50
2023-03-21T22:58:19.191Z,46.30
2023-03-21T23:00:45.936Z,46.51
2023-03-21T23:03:14.595Z,46.63
2023-03-21T23:05:41.654Z,46.31
2023-03-21T23:08:08.735Z,46.45
2023-03-21T23:10:38.140Z,46.10
2023-03-21T23:13:05.602Z,46.47
2023-03-21T23:15:33.749Z,46.07
2023-03-21T23:18:01.101Z,45.96
2023-03-21T23:20:27.769Z,46.40
2023-03-21T23:22:54.375Z,45.92
2023-03-21T23:25:21.005Z,46.14
2023-03-21T23:27:48.033Z,46.32
2023-03-21T23:30:15.444Z,46.21
2023-03-21T23:32:42.528Z,46.18
2023-03-21T23:35:09.863Z,46.44
2023-03-21T23:37:36.703Z,46.21
2023-03-21T23:40:06.371Z,46.01
2023-03-21T23:42:34.255Z,46.23
2023-03-21T23:45:00.968Z,46.23
2023-03-21T23:47:28.175Z,46.40
2023-03-21T23:49:54.779Z,46.39
2023-03-21T23:52:21.486Z,46.20
2023-03-21T23:54:48.095Z,46.36
2023-03-21T23:57:14.705Z,46.13
2023-03-21T23:59:41.264Z,46.09
